Time;durP1;ratioP1;P1;durP2;ratioP2;P2;SDS_P1;SDS_P2;PMS_P1;PMS_P2;Temp;Humidity;BMP_temperature;BMP_pressure;BME280_temperature;BME280_humidity;BME280_pressure;Samples;Min_cycle;Max_cycle;Signal;HPM_P1;HPM_P2
2022/01/15 00:02:35;;;;;;;39.97;9.82;;;1.70;99.90;;;;;;2603484;54;20030;31
2022/01/15 00:05:12;;;;;;;32.53;8.48;;;1.70;99.90;;;;;;2622132;46;20026;31
2022/01/15 00:07:51;;;;;;;24.73;6.72;;;1.60;99.90;;;;;;2603654;54;20574;31
2022/01/15 00:10:29;;;;;;;33.83;7.72;;;1.60;99.90;;;;;;2622197;46;20026;31
2022/01/15 00:13:22;;;;;;;28.92;6.72;;;1.60;99.90;;;;;;2602902;54;20093;31
2022/01/15 00:16:06;;;;;;;31.90;6.97;;;1.50;99.90;;;;;;2622146;46;20085;31
2022/01/15 00:18:48;;;;;;;26.90;6.73;;;1.50;99.90;;;;;;2603727;54;20089;31
2022/01/15 00:21:24;;;;;;;23.58;6.63;;;1.40;99.90;;;;;;2603506;54;20878;31
2022/01/15 00:23:59;;;;;;;32.60;7.38;;;1.30;99.90;;;;;;2603510;54;20052;31
2022/01/15 00:26:40;;;;;;;31.02;7.45;;;1.40;99.90;;;;;;2603660;54;21361;31
2022/01/15 00:29:15;;;;;;;30.47;7.87;;;1.20;99.90;;;;;;2603744;54;20882;31
2022/01/15 00:31:52;;;;;;;28.58;8.27;;;1.30;99.90;;;;;;2603683;54;20238;31
2022/01/15 00:34:27;;;;;;;40.03;8.57;;;1.20;99.90;;;;;;2603599;54;20863;31
2022/01/15 00:37:03;;;;;;;35.53;8.68;;;1.20;99.90;;;;;;2603617;54;20906;31
2022/01/15 00:39:39;;;;;;;38.47;9.15;;;1.30;99.90;;;;;;2603398;54;20064;31
2022/01/15 00:42:18;;;;;;;33.95;9.35;;;1.20;99.90;;;;;;2603461;54;21396;31
2022/01/15 00:44:57;;;;;;;40.13;8.48;;;1.20;99.90;;;;;;2603545;54;20030;31
2022/01/15 00:47:35;;;;;;;34.22;8.50;;;1.20;99.90;;;;;;2621974;46;20029;31
2022/01/15 00:50:10;;;;;;;22.38;6.10;;;1.20;99.90;;;;;;2603333;54;20027;31
2022/01/15 00:52:45;;;;;;;27.90;7.50;;;1.20;99.90;;;;;;2603437;54;21489;31
2022/01/15 00:55:24;;;;;;;35.03;6.97;;;1.20;99.90;;;;;;2603558;54;21352;31
2022/01/15 00:58:01;;;;;;;25.42;5.70;;;1.20;99.90;;;;;;2603339;54;20869;31
2022/01/15 01:00:36;;;;;;;26.95;7.05;;;1.20;99.90;;;;;;2603086;54;20038;31
2022/01/15 01:03:11;;;;;;;22.50;6.67;;;1.20;99.90;;;;;;2603416;54;20088;31
2022/01/15 01:05:49;;;;;;;25.73;7.00;;;1.10;99.90;;;;;;2603419;54;20026;31
2022/01/15 01:08:24;;;;;;;22.33;6.45;;;1.10;99.90;;;;;;2621639;46;21242;31
2022/01/15 01:11:00;;;;;;;35.20;8.50;;;1.10;99.90;;;;;;2603414;54;20019;31
2022/01/15 01:24:46;;;;;;;27.05;6.70;;;1.10;99.90;;;;;;2603393;54;20038;31
2022/01/15 01:27:25;;;;;;;31.45;6.65;;;0.90;99.90;;;;;;2607283;46;20027;31
2022/01/15 01:30:16;;;;;;;28.60;7.25;;;0.90;99.90;;;;;;2603452;54;20822;31
2022/01/15 01:32:57;;;;;;;27.17;6.70;;;0.90;99.90;;;;;;2603386;54;20763;31
2022/01/15 01:35:40;;;;;;;22.42;5.65;;;1.00;99.90;;;;;;2621258;46;20033;31
2022/01/15 01:38:25;;;;;;;28.55;7.00;;;0.90;99.90;;;;;;2603251;54;20026;31
2022/01/15 01:41:02;;;;;;;25.67;5.88;;;0.90;99.90;;;;;;2622030;46;20041;31
2022/01/15 01:43:46;;;;;;;21.48;5.80;;;0.90;99.90;;;;;;2622043;46;20026;31
2022/01/15 01:51:44;;;;;;;27.67;6.60;;;0.80;99.90;;;;;;2603412;54;20776;31
2022/01/15 01:54:28;;;;;;;38.30;8.38;;;0.80;99.90;;;;;;2621690;46;20636;31
2022/01/15 01:57:03;;;;;;;28.40;7.28;;;0.80;99.90;;;;;;2603260;54;20048;31
2022/01/15 02:02:17;;;;;;;26.45;6.22;;;0.70;99.90;;;;;;2603298;54;20089;31
2022/01/15 02:04:53;;;;;;;26.35;7.90;;;0.70;99.90;;;;;;2603133;54;20053;31
2022/01/15 02:07:28;;;;;;;25.20;6.28;;;0.70;99.90;;;;;;2603012;54;20200;31
2022/01/15 02:10:09;;;;;;;32.05;7.30;;;0.70;99.90;;;;;;2603335;54;20030;31
2022/01/15 02:12:55;;;;;;;35.85;7.93;;;0.70;99.90;;;;;;2602924;54;20766;31
2022/01/15 02:15:31;;;;;;;33.88;6.57;;;0.60;99.90;;;;;;2603144;54;20089;31
2022/01/15 02:18:11;;;;;;;23.02;6.15;;;0.60;99.90;;;;;;2603286;54;20089;31
2022/01/15 02:23:32;;;;;;;25.10;5.75;;;0.60;99.90;;;;;;2700687;39;21242;31
2022/01/15 02:23:57;;;;;;;26.15;5.40;;;0.60;99.90;;;;;;2603126;54;20038;31
2022/01/15 02:26:34;;;;;;;21.55;5.30;;;0.50;99.90;;;;;;2621574;46;20086;31
2022/01/15 02:29:10;;;;;;;24.17;5.93;;;0.50;99.90;;;;;;2621365;47;20914;31
2022/01/15 02:31:45;;;;;;;26.58;5.70;;;0.50;99.90;;;;;;2603234;54;20877;31
2022/01/15 02:34:24;;;;;;;23.83;5.25;;;0.50;99.90;;;;;;2603032;54;20023;31
2022/01/15 02:36:58;;;;;;;22.67;5.00;;;0.50;99.90;;;;;;2621013;47;20880;31
2022/01/15 02:39:37;;;;;;;16.90;5.57;;;0.50;99.90;;;;;;2602932;54;20785;31
2022/01/15 02:42:13;;;;;;;22.95;4.80;;;0.50;99.90;;;;;;2602880;54;19938;31
2022/01/15 02:44:48;;;;;;;22.08;5.97;;;0.50;99.90;;;;;;2603145;54;20046;31
2022/01/15 02:50:12;;;;;;;24.30;5.20;;;0.40;99.90;;;;;;2603148;54;20046;31
2022/01/15 02:52:49;;;;;;;24.60;5.38;;;0.40;99.90;;;;;;2603208;54;20053;31
2022/01/15 02:55:26;;;;;;;19.40;5.38;;;0.40;99.90;;;;;;2772759;31;21434;31
2022/01/15 02:58:01;;;;;;;21.52;5.45;;;0.40;99.90;;;;;;2602940;54;20812;31
2022/01/15 03:00:37;;;;;;;30.02;5.10;;;0.30;99.90;;;;;;2602729;54;20911;31
2022/01/15 03:03:14;;;;;;;21.83;4.45;;;0.30;99.90;;;;;;2621405;47;20084;31
2022/01/15 03:05:49;;;;;;;22.33;4.90;;;0.30;99.90;;;;;;2602897;54;20026;31
2022/01/15 03:08:24;;;;;;;20.70;4.65;;;0.30;99.90;;;;;;2621474;47;20026;31
2022/01/15 03:11:04;;;;;;;22.63;5.18;;;0.20;99.90;;;;;;2621224;47;20027;31
2022/01/15 03:13:37;;;;;;;15.73;3.87;;;0.20;99.90;;;;;;2603176;54;20931;31
2022/01/15 03:16:14;;;;;;;21.55;5.65;;;0.20;99.90;;;;;;2602740;54;20239;31
2022/01/15 03:18:49;;;;;;;23.02;6.53;;;0.20;99.90;;;;;;2602914;54;20038;31
2022/01/15 03:21:25;;;;;;;19.47;4.97;;;0.20;99.90;;;;;;2621360;47;20027;31
2022/01/15 03:24:00;;;;;;;18.58;4.72;;;0.20;99.90;;;;;;2603415;54;20026;31
2022/01/15 03:26:38;;;;;;;22.80;5.10;;;0.10;99.90;;;;;;2603876;54;20832;31
2022/01/15 03:29:12;;;;;;;29.58;6.10;;;0.10;99.90;;;;;;2603910;54;20036;31
2022/01/15 03:31:47;;;;;;;31.77;6.45;;;0.10;99.90;;;;;;2603655;54;20786;31
2022/01/15 03:34:24;;;;;;;31.50;6.20;;;0.10;99.90;;;;;;2603855;54;20105;31
2022/01/15 03:37:00;;;;;;;29.00;5.72;;;0.10;99.90;;;;;;2603916;54;20250;31
2022/01/15 03:39:38;;;;;;;31.05;7.20;;;0.10;99.90;;;;;;2603556;54;20846;31
2022/01/15 03:42:17;;;;;;;34.65;6.10;;;0.00;99.90;;;;;;2603645;54;20115;31
2022/01/15 03:44:52;;;;;;;28.58;6.65;;;0.00;99.90;;;;;;2603754;54;20072;31
2022/01/15 03:47:28;;;;;;;25.63;7.05;;;0.00;99.90;;;;;;2603818;54;20757;31
2022/01/15 03:50:06;;;;;;;29.52;8.13;;;0.00;99.90;;;;;;2603667;54;20097;31
2022/01/15 03:52:44;;;;;;;28.50;7.23;;;0.00;99.90;;;;;;2603640;54;20899;31
2022/01/15 03:55:16;;;;;;;25.88;7.20;;;0.00;99.90;;;;;;2603653;54;20166;31
2022/01/15 03:57:57;;;;;;;41.45;7.65;;;-0.10;99.90;;;;;;2603850;54;20031;31
2022/01/15 04:00:32;;;;;;;34.10;7.60;;;-0.10;99.90;;;;;;2603737;54;20027;31
2022/01/15 04:03:11;;;;;;;33.28;7.43;;;-0.10;99.90;;;;;;2603810;54;20057;31
2022/01/15 04:05:50;;;;;;;37.33;8.32;;;-0.10;99.90;;;;;;2603634;54;20033;31
2022/01/15 04:08:25;;;;;;;30.50;8.32;;;-0.10;99.90;;;;;;2622386;46;20042;31
2022/01/15 04:10:59;;;;;;;28.25;7.68;;;-0.10;99.90;;;;;;2603521;54;20026;31
2022/01/15 04:13:40;;;;;;;28.73;7.68;;;-0.10;99.90;;;;;;2720477;39;20493;31
2022/01/15 04:16:15;;;;;;;35.20;8.10;;;-0.10;99.90;;;;;;2603591;54;20580;31
2022/01/15 04:18:52;;;;;;;;;;;-0.10;99.90;;;;;;2603721;54;20147;31
2022/01/15 04:21:32;;;;;;;23.15;6.50;;;-0.10;99.90;;;;;;2622121;46;19942;31
2022/01/15 04:24:08;;;;;;;28.30;7.35;;;-0.10;99.90;;;;;;2702087;39;20474;31
2022/01/15 04:26:42;;;;;;;25.38;6.78;;;-0.10;99.90;;;;;;2603752;54;20026;31
2022/01/15 04:29:22;;;;;;;31.70;7.13;;;-0.20;99.90;;;;;;2603659;54;21000;31
2022/01/15 04:31:56;;;;;;;30.52;6.80;;;-0.10;99.90;;;;;;2603672;54;21061;31
2022/01/15 04:34:29;;;;;;;35.10;8.20;;;-0.10;99.90;;;;;;2603665;54;20030;31
2022/01/15 04:37:12;;;;;;;32.85;8.75;;;-0.10;99.90;;;;;;2603575;54;20026;31
2022/01/15 04:39:48;;;;;;;34.75;8.63;;;-0.10;99.90;;;;;;2621951;46;20030;31
2022/01/15 04:42:25;;;;;;;;;;;-0.10;99.90;;;;;;2603854;54;20031;31
2022/01/15 04:45:07;;;;;;;26.53;8.00;;;-0.10;99.90;;;;;;2603471;54;20001;31
2022/01/15 04:47:41;;;;;;;37.28;8.82;;;0.00;99.90;;;;;;2621967;46;20037;31
2022/01/15 04:50:18;;;;;;;38.90;10.88;;;0.00;99.90;;;;;;2622074;46;20026;31
2022/01/15 04:52:55;;;;;;;46.10;11.50;;;0.00;99.90;;;;;;2603470;54;20042;31
2022/01/15 04:55:31;;;;;;;33.63;11.73;;;0.00;99.90;;;;;;2701902;39;20470;31
2022/01/15 04:58:07;;;;;;;46.28;14.55;;;0.00;99.90;;;;;;2622180;46;20836;31
2022/01/15 05:00:45;;;;;;;45.45;12.05;;;0.10;99.90;;;;;;2603356;54;20038;31
2022/01/15 05:03:21;;;;;;;37.35;11.85;;;0.10;99.90;;;;;;2603608;54;20033;31
2022/01/15 05:05:55;;;;;;;40.85;11.65;;;0.10;99.90;;;;;;2603391;54;20931;31
2022/01/15 05:08:30;;;;;;;49.65;12.52;;;0.10;99.90;;;;;;2603480;54;20026;31
2022/01/15 05:11:13;;;;;;;42.45;13.20;;;0.10;99.90;;;;;;2603400;54;20030;31
2022/01/15 05:13:49;;;;;;;43.75;15.65;;;0.10;99.90;;;;;;2603509;54;20063;31
2022/01/15 05:16:27;;;;;;;53.03;13.85;;;0.10;99.90;;;;;;2621693;46;20031;31
2022/01/15 05:19:02;;;;;;;52.95;14.65;;;0.10;99.90;;;;;;2603341;54;20670;31
2022/01/15 05:21:40;;;;;;;47.03;12.88;;;0.10;99.90;;;;;;2603415;54;20765;31
2022/01/15 05:24:15;;;;;;;61.20;15.25;;;0.10;99.90;;;;;;2603531;54;20030;31
2022/01/15 05:26:50;;;;;;;51.20;13.98;;;0.10;99.90;;;;;;2621397;46;20877;31
2022/01/15 05:29:25;;;;;;;42.63;13.43;;;0.10;99.90;;;;;;2603296;54;20033;31
2022/01/15 05:32:08;;;;;;;52.78;13.45;;;0.10;99.90;;;;;;2603257;54;20038;31
2022/01/15 05:34:46;;;;;;;51.50;14.50;;;0.10;99.90;;;;;;2603213;54;20037;31
2022/01/15 05:37:21;;;;;;;51.50;15.30;;;0.10;99.90;;;;;;2621967;46;20806;31
2022/01/15 05:39:58;;;;;;;56.35;14.02;;;0.10;99.90;;;;;;2603676;54;20046;31
2022/01/15 05:42:33;;;;;;;51.92;13.20;;;0.10;99.90;;;;;;2603286;54;20840;31
2022/01/15 05:45:11;;;;;;;63.92;14.00;;;0.10;99.90;;;;;;2603377;54;20037;31
2022/01/15 05:47:49;;;;;;;54.00;14.00;;;0.10;99.90;;;;;;2603116;54;20026;31
2022/01/15 05:50:24;;;;;;;51.78;14.18;;;0.20;99.90;;;;;;2603305;54;20056;31
2022/01/15 05:53:01;;;;;;;49.53;14.00;;;0.20;99.90;;;;;;2702218;39;21039;31
2022/01/15 05:55:38;;;;;;;62.65;16.52;;;0.10;99.90;;;;;;2603114;54;20871;31
2022/01/15 05:58:13;;;;;;;59.03;14.88;;;0.20;99.90;;;;;;2603201;54;20030;31
2022/01/15 06:00:48;;;;;;;;;;;0.20;99.90;;;;;;2603367;54;20064;31
2022/01/15 06:03:27;;;;;;;53.33;14.18;;;0.20;99.90;;;;;;2621907;46;20013;31
2022/01/15 06:06:03;;;;;;;52.70;14.13;;;0.20;99.90;;;;;;2621344;46;20863;31
2022/01/15 06:08:40;;;;;;;52.10;15.87;;;0.20;99.90;;;;;;2609894;46;20123;31
2022/01/15 06:11:17;;;;;;;50.80;14.25;;;0.20;99.90;;;;;;2602958;54;20908;31
2022/01/15 06:16:27;;;;;;;66.82;15.55;;;0.30;99.90;;;;;;2603333;54;20076;31
2022/01/15 06:19:07;;;;;;;46.13;14.15;;;0.30;99.90;;;;;;2603208;54;20024;31
2022/01/15 06:21:42;;;;;;;57.60;16.40;;;0.30;99.90;;;;;;2603289;54;20035;31
2022/01/15 06:24:17;;;;;;;;;;;0.30;99.90;;;;;;2603366;54;20038;31
2022/01/15 06:26:52;;;;;;;51.70;14.00;;;0.30;99.90;;;;;;2701897;39;21070;31
2022/01/15 06:31:58;;;;;;;55.45;14.35;;;0.40;99.90;;;;;;2603188;54;19934;31
2022/01/15 06:34:40;;;;;;;62.90;15.10;;;0.40;99.90;;;;;;2621548;47;20105;31
2022/01/15 06:37:18;;;;;;;50.45;15.05;;;0.50;99.90;;;;;;2603080;54;20057;31
2022/01/15 06:39:52;;;;;;;42.00;14.20;;;0.60;99.90;;;;;;2603266;54;20562;31
2022/01/15 06:42:27;;;;;;;50.35;14.77;;;0.50;99.90;;;;;;2602922;54;20030;31
2022/01/15 06:45:01;;;;;;;61.15;14.60;;;0.60;99.90;;;;;;2603048;54;20902;31
2022/01/15 06:47:36;;;;;;;49.38;14.43;;;0.60;99.90;;;;;;2621457;47;20030;31
2022/01/15 06:50:11;;;;;;;58.70;15.75;;;0.60;99.90;;;;;;2602907;54;20891;31
2022/01/15 06:52:50;;;;;;;44.63;14.52;;;0.60;99.90;;;;;;2621586;47;20749;31
2022/01/15 06:55:25;;;;;;;38.25;12.60;;;0.70;99.90;;;;;;2602970;54;20165;31
2022/01/15 06:58:02;;;;;;;42.95;15.43;;;0.70;99.90;;;;;;2603183;54;20750;31
2022/01/15 07:00:37;;;;;;;59.80;16.00;;;0.70;99.90;;;;;;2603776;54;20026;31
2022/01/15 07:03:15;;;;;;;68.25;16.40;;;0.70;99.90;;;;;;2702369;39;20496;31
2022/01/15 07:05:51;;;;;;;56.15;16.23;;;0.80;99.90;;;;;;2603886;54;20034;31
2022/01/15 07:08:29;;;;;;;52.80;15.20;;;0.80;99.90;;;;;;2622430;46;20411;31
2022/01/15 07:11:08;;;;;;;73.20;14.68;;;0.70;99.90;;;;;;2607884;46;20034;31
2022/01/15 07:13:41;;;;;;;;;;;0.70;99.90;;;;;;2604195;54;21469;31
2022/01/15 07:16:18;;;;;;;55.33;15.85;;;0.80;99.90;;;;;;2603193;54;19942;31
2022/01/15 07:19:03;;;;;;;69.53;18.08;;;0.80;99.90;;;;;;2603301;54;20026;31
2022/01/15 07:21:38;;;;;;;55.35;16.15;;;0.80;99.90;;;;;;2603634;54;20422;31
2022/01/15 07:24:18;;;;;;;63.05;20.10;;;0.80;99.90;;;;;;2603678;54;20956;31
2022/01/15 07:26:55;;;;;;;67.32;15.98;;;0.80;99.90;;;;;;2603558;54;20034;31
2022/01/15 07:29:30;;;;;;;;;;;0.80;99.90;;;;;;2622168;46;20879;31
2022/01/15 07:32:06;;;;;;;53.23;16.73;;;0.80;99.90;;;;;;2603773;54;20746;31
2022/01/15 07:34:41;;;;;;;65.78;15.63;;;0.80;99.90;;;;;;2622219;46;20051;31
2022/01/15 07:37:16;;;;;;;52.75;16.02;;;0.80;99.90;;;;;;2603572;54;20064;31
2022/01/15 07:39:57;;;;;;;59.72;16.30;;;0.80;99.90;;;;;;2603817;54;20052;31
2022/01/15 07:42:35;;;;;;;43.55;14.73;;;0.80;99.90;;;;;;2602996;54;19934;31
2022/01/15 07:45:14;;;;;;;76.15;18.20;;;0.80;99.90;;;;;;2603656;54;20030;31
2022/01/15 07:47:49;;;;;;;71.90;18.60;;;0.80;99.90;;;;;;2603641;54;20049;31
2022/01/15 07:50:26;;;;;;;74.18;18.52;;;0.90;99.90;;;;;;2603537;54;20046;31
2022/01/15 07:53:02;;;;;;;59.45;16.17;;;0.80;99.90;;;;;;2603596;54;20912;31
2022/01/15 07:55:41;;;;;;;57.50;16.63;;;0.90;99.90;;;;;;2622173;46;20034;31
2022/01/15 07:58:16;;;;;;;63.00;18.10;;;0.90;99.90;;;;;;2603648;54;20085;31
2022/01/15 08:00:54;;;;;;;60.70;16.70;;;0.90;99.90;;;;;;2621901;46;20054;31
2022/01/15 08:03:30;;;;;;;52.45;17.23;;;0.90;99.90;;;;;;2603621;54;20038;31
2022/01/15 08:06:09;;;;;;;56.40;16.73;;;0.90;99.90;;;;;;2603350;54;20089;31
2022/01/15 08:08:49;;;;;;;47.95;14.68;;;1.00;99.90;;;;;;2603460;54;20162;31
2022/01/15 08:11:30;;;;;;;61.40;16.05;;;1.00;99.90;;;;;;2603465;54;20986;31
2022/01/15 08:14:05;;;;;;;63.40;16.67;;;1.10;99.90;;;;;;2603521;54;20056;31
2022/01/15 08:16:41;;;;;;;45.65;15.90;;;1.00;99.90;;;;;;2603734;54;20029;31
2022/01/15 08:19:16;;;;;;;41.08;14.68;;;1.10;99.90;;;;;;2603425;54;20049;31
2022/01/15 08:21:53;;;;;;;47.95;16.25;;;1.10;99.90;;;;;;2603428;54;20030;31
2022/01/15 08:24:29;;;;;;;60.25;16.60;;;1.10;99.90;;;;;;2621942;46;20097;31
2022/01/15 08:27:14;;;;;;;57.72;17.98;;;1.10;99.90;;;;;;2603804;54;20031;31
2022/01/15 08:29:49;;;;;;;45.70;13.10;;;1.10;99.90;;;;;;2621619;46;21837;31
2022/01/15 08:32:29;;;;;;;52.87;13.90;;;1.20;99.90;;;;;;2622097;46;20026;31
2022/01/15 08:35:10;;;;;;;57.13;16.20;;;1.20;99.90;;;;;;2603311;54;20033;31
2022/01/15 08:37:45;;;;;;;51.23;15.47;;;1.20;99.90;;;;;;2603535;54;21324;31
2022/01/15 08:40:24;;;;;;;54.85;13.60;;;1.10;99.90;;;;;;2603474;54;20079;31
2022/01/15 08:45:38;;;;;;;58.90;15.65;;;1.10;99.90;;;;;;2603565;54;20027;31
2022/01/15 08:48:14;;;;;;;58.80;17.65;;;1.20;99.90;;;;;;2603479;54;20631;31
2022/01/15 08:50:57;;;;;;;54.00;15.37;;;1.10;99.90;;;;;;2621864;46;20058;31
2022/01/15 08:53:39;;;;;;;51.15;15.10;;;1.20;99.90;;;;;;2603302;54;20041;31
2022/01/15 08:56:17;;;;;;;42.35;14.70;;;1.20;99.90;;;;;;2621375;46;20927;31
2022/01/15 08:58:52;;;;;;;51.58;16.20;;;1.30;99.90;;;;;;2603396;54;20809;31
2022/01/15 09:01:32;;;;;;;52.42;16.13;;;1.30;99.90;;;;;;2602755;54;20030;31
2022/01/15 09:04:07;;;;;;;55.30;14.55;;;1.30;99.90;;;;;;2603426;54;20923;31
2022/01/15 09:06:43;;;;;;;44.97;13.23;;;1.40;99.90;;;;;;2621946;46;20027;31
2022/01/15 09:09:17;;;;;;;52.95;15.05;;;1.40;99.90;;;;;;2603329;54;20073;31
2022/01/15 09:11:54;;;;;;;39.93;12.57;;;1.40;99.90;;;;;;2621653;46;20946;31
2022/01/15 09:14:29;;;;;;;41.47;12.82;;;1.40;99.90;;;;;;2603287;54;21137;31
2022/01/15 09:17:09;;;;;;;46.83;13.73;;;1.50;99.90;;;;;;2603253;54;20128;31
2022/01/15 09:19:44;;;;;;;60.70;14.45;;;1.40;99.90;;;;;;2603321;54;20026;31
2022/01/15 09:22:25;;;;;;;46.83;13.88;;;1.50;99.90;;;;;;2603266;54;20033;31
2022/01/15 09:25:00;;;;;;;51.47;15.18;;;1.60;99.90;;;;;;2622008;46;20124;31
2022/01/15 09:30:28;;;;;;;48.00;14.40;;;1.70;99.90;;;;;;2603320;54;20026;31
2022/01/15 09:33:22;;;;;;;38.17;14.25;;;1.70;99.90;;;;;;2603333;54;20976;31
2022/01/15 09:38:29;;;;;;;41.85;14.23;;;1.80;99.90;;;;;;2621979;46;21010;31
2022/01/15 09:41:05;;;;;;;43.58;13.20;;;1.80;99.90;;;;;;2603259;54;20052;31
2022/01/15 09:43:42;;;;;;;42.60;13.40;;;1.90;99.90;;;;;;2621730;46;20022;31
2022/01/15 09:46:17;;;;;;;39.65;13.35;;;1.90;99.90;;;;;;2621918;46;20067;31
2022/01/15 09:48:55;;;;;;;42.15;13.20;;;1.90;99.90;;;;;;2603176;54;20077;31
2022/01/15 09:51:30;;;;;;;48.50;13.90;;;1.90;99.90;;;;;;2612670;46;20042;31
2022/01/15 09:54:05;;;;;;;39.50;12.40;;;1.90;99.90;;;;;;2621869;46;20072;31
2022/01/15 09:56:39;;;;;;;42.30;13.75;;;1.90;99.90;;;;;;2603349;54;20055;31
2022/01/15 09:59:15;;;;;;;39.53;12.35;;;1.90;99.90;;;;;;2603191;54;20022;31
2022/01/15 10:01:50;;;;;;;49.83;13.25;;;1.90;99.90;;;;;;2603037;54;20801;31
2022/01/15 10:04:35;;;;;;;33.57;10.90;;;1.90;99.90;;;;;;2603255;54;20887;31
2022/01/15 10:07:13;;;;;;;35.67;12.93;;;2.00;99.90;;;;;;2603431;54;20592;31
2022/01/15 10:12:33;;;;;;;30.75;10.82;;;2.00;99.90;;;;;;2603155;54;20081;31
2022/01/15 10:15:10;;;;;;;31.23;7.90;;;2.40;99.90;;;;;;2603050;54;20124;31
2022/01/15 10:17:45;;;;;;;42.28;10.45;;;3.30;99.90;;;;;;2603092;54;20157;31
2022/01/15 10:20:25;;;;;;;30.00;11.02;;;4.00;99.90;;;;;;2603234;54;20838;31
2022/01/15 10:23:05;;;;;;;35.33;10.10;;;4.00;99.90;;;;;;2621191;46;20934;31
2022/01/15 10:25:45;;;;;;;36.08;11.65;;;3.90;99.90;;;;;;2603011;54;20030;31
2022/01/15 10:28:23;;;;;;;34.53;10.23;;;3.70;99.90;;;;;;2602904;54;20028;31
2022/01/15 10:31:17;;;;;;;33.75;10.10;;;3.50;99.90;;;;;;2701462;39;20469;31
2022/01/15 10:34:00;;;;;;;31.67;11.55;;;3.30;99.90;;;;;;2603702;54;20817;31
2022/01/15 10:36:35;;;;;;;33.80;9.60;;;3.10;99.90;;;;;;2604073;54;20795;31
2022/01/15 10:39:20;;;;;;;34.33;11.55;;;2.90;99.90;;;;;;2603918;54;20026;31
2022/01/15 10:41:55;;;;;;;28.48;10.45;;;2.80;99.90;;;;;;2603940;54;20757;31
2022/01/15 10:44:32;;;;;;;36.08;10.30;;;2.70;99.90;;;;;;2603511;54;20148;31
2022/01/15 10:47:10;;;;;;;36.40;9.68;;;2.70;99.90;;;;;;2604009;54;20725;31
2022/01/15 10:49:46;;;;;;;31.75;10.40;;;2.60;99.90;;;;;;2606751;46;20042;31
2022/01/15 10:52:22;;;;;;;33.45;10.05;;;2.50;99.90;;;;;;2603969;54;20026;31
2022/01/15 10:55:07;;;;;;;21.15;9.35;;;2.50;99.90;;;;;;2603953;54;20038;31
2022/01/15 10:57:43;;;;;;;30.27;8.47;;;2.40;99.90;;;;;;2603896;54;20026;31
2022/01/15 11:00:22;;;;;;;40.65;21.50;;;2.40;99.90;;;;;;2622246;46;20030;31
2022/01/15 11:02:58;;;;;;;33.03;10.02;;;2.40;99.90;;;;;;2622545;46;20911;31
2022/01/15 11:05:35;;;;;;;30.15;9.32;;;2.40;99.90;;;;;;2604075;54;20026;31
2022/01/15 11:08:16;;;;;;;27.13;9.77;;;2.40;99.90;;;;;;2622534;46;20033;31
2022/01/15 11:13:32;;;;;;;37.20;9.82;;;2.40;99.90;;;;;;2603690;54;20561;31
2022/01/15 11:16:10;;;;;;;34.38;10.68;;;2.40;99.90;;;;;;2603781;54;20085;31
2022/01/15 11:18:45;;;;;;;24.45;8.65;;;2.40;99.90;;;;;;2604142;54;20030;31
2022/01/15 11:21:25;;;;;;;26.15;8.27;;;2.40;99.90;;;;;;2622241;46;20029;31
2022/01/15 11:24:04;;;;;;;28.95;9.10;;;2.40;99.90;;;;;;2603641;54;20835;31
2022/01/15 11:26:38;;;;;;;24.37;8.57;;;2.40;99.90;;;;;;2603264;54;20026;31
2022/01/15 11:29:18;;;;;;;32.90;9.40;;;2.40;99.90;;;;;;2603640;54;20037;31
2022/01/15 11:31:56;;;;;;;29.60;9.32;;;2.50;99.90;;;;;;2603527;54;20247;31
2022/01/15 11:34:29;;;;;;;34.22;9.25;;;2.50;99.90;;;;;;2603048;54;22452;31
2022/01/15 11:37:02;;;;;;;43.90;9.63;;;2.50;99.90;;;;;;2702497;39;22471;31
2022/01/15 11:39:40;;;;;;;30.08;8.75;;;2.50;99.90;;;;;;2603690;54;20318;31
2022/01/15 11:42:28;;;;;;;33.13;9.55;;;2.50;99.90;;;;;;2603606;54;20867;31
2022/01/15 11:45:09;;;;;;;35.60;11.35;;;2.50;99.90;;;;;;2603692;54;20038;31
2022/01/15 11:47:42;;;;;;;31.80;9.60;;;2.50;99.90;;;;;;2603626;54;20023;31
2022/01/15 11:50:26;;;;;;;36.00;9.60;;;2.60;99.90;;;;;;2603103;54;20021;31
2022/01/15 11:53:00;;;;;;;22.80;9.15;;;2.60;99.90;;;;;;2622135;46;20042;31
2022/01/15 11:55:39;;;;;;;33.88;11.10;;;2.60;99.90;;;;;;2603673;54;20632;31
2022/01/15 11:58:21;;;;;;;35.40;10.55;;;2.60;99.90;;;;;;2603683;54;20580;31
2022/01/15 12:00:58;;;;;;;30.15;9.70;;;2.70;99.90;;;;;;2702083;39;20602;31
2022/01/15 12:03:34;;;;;;;28.02;10.05;;;2.60;99.90;;;;;;2702487;39;21026;31
2022/01/15 12:06:11;;;;;;;30.02;9.88;;;2.70;99.90;;;;;;2603340;54;20057;31
2022/01/15 12:09:01;;;;;;;26.58;9.88;;;2.80;99.90;;;;;;2622363;46;20031;31
2022/01/15 12:11:36;;;;;;;29.27;10.52;;;2.80;99.90;;;;;;2622075;46;20030;31
2022/01/15 12:14:09;;;;;;;31.05;9.15;;;2.90;99.90;;;;;;2603721;54;20078;31
2022/01/15 12:16:49;;;;;;;29.45;8.80;;;2.90;99.90;;;;;;2603520;54;20026;31
2022/01/15 12:19:27;;;;;;;25.30;9.20;;;3.00;99.90;;;;;;2621957;46;20581;31
2022/01/15 12:22:03;;;;;;;34.10;10.20;;;3.00;99.90;;;;;;2621897;46;20887;31
2022/01/15 12:24:44;;;;;;;26.25;8.50;;;3.00;99.90;;;;;;2603426;54;20749;31
2022/01/15 12:27:25;;;;;;;33.45;9.68;;;3.00;99.90;;;;;;2603454;54;20038;31
2022/01/15 12:30:02;;;;;;;29.45;9.90;;;3.10;99.90;;;;;;2622121;46;20050;31
2022/01/15 12:32:42;;;;;;;32.70;9.15;;;3.10;99.90;;;;;;2603613;54;20035;31
2022/01/15 12:35:22;;;;;;;27.42;9.32;;;3.10;99.90;;;;;;2603603;54;20253;31
2022/01/15 12:38:01;;;;;;;30.23;9.67;;;3.00;99.90;;;;;;2603392;54;20038;31
2022/01/15 12:40:37;;;;;;;28.95;9.45;;;3.00;99.90;;;;;;2603562;54;20027;31
2022/01/15 12:43:14;;;;;;;26.25;9.48;;;3.00;99.90;;;;;;2603531;54;20034;31
2022/01/15 12:45:52;;;;;;;35.33;10.18;;;3.00;99.90;;;;;;2603540;54;20569;31
2022/01/15 12:48:30;;;;;;;29.63;8.95;;;3.00;99.90;;;;;;2702602;39;20575;31
2022/01/15 12:51:06;;;;;;;27.60;9.52;;;3.00;99.90;;;;;;2603440;54;20887;31
2022/01/15 12:53:43;;;;;;;27.85;9.00;;;3.10;99.90;;;;;;2603708;54;20032;31
2022/01/15 12:56:19;;;;;;;28.55;8.80;;;3.70;99.90;;;;;;2603514;54;20034;31
2022/01/15 12:58:57;;;;;;;31.10;8.68;;;3.30;99.90;;;;;;2603523;54;20026;31
2022/01/15 13:01:33;;;;;;;;;;;4.10;99.90;;;;;;2603757;54;20100;31
2022/01/15 13:04:21;;;;;;;22.20;7.78;;;3.50;99.90;;;;;;2603290;54;19934;31
2022/01/15 13:07:02;;;;;;;24.20;8.63;;;3.50;99.90;;;;;;2603365;54;20026;31
2022/01/15 13:09:47;;;;;;;24.60;6.75;;;3.50;99.90;;;;;;2603638;54;20030;31
2022/01/15 13:12:28;;;;;;;25.63;9.67;;;3.50;99.90;;;;;;2603227;54;20026;31
2022/01/15 13:15:04;;;;;;;29.15;8.65;;;3.70;99.90;;;;;;2603546;54;20573;31
2022/01/15 13:17:38;;;;;;;23.42;8.30;;;3.50;99.90;;;;;;2603193;54;20027;31
2022/01/15 13:20:30;;;;;;;26.70;8.60;;;3.50;99.90;;;;;;2603205;54;20030;31
2022/01/15 13:25:38;;;;;;;36.55;8.85;;;3.50;99.90;;;;;;2602872;54;20784;31
2022/01/15 13:28:16;;;;;;;20.63;6.40;;;3.50;99.90;;;;;;2621436;46;20035;31
2022/01/15 13:30:52;;;;;;;22.90;7.65;;;3.70;99.90;;;;;;2603357;54;20026;31
2022/01/15 13:33:37;;;;;;;24.80;7.65;;;3.50;99.90;;;;;;2603430;54;20568;31
2022/01/15 13:36:20;;;;;;;23.45;7.22;;;3.50;99.90;;;;;;2701869;39;20444;31
2022/01/15 13:38:57;;;;;;;23.25;8.00;;;3.50;99.90;;;;;;2621610;46;20035;31
2022/01/15 13:41:37;;;;;;;28.55;11.32;;;3.60;99.90;;;;;;2621583;46;19941;31
2022/01/15 13:44:13;;;;;;;34.85;10.05;;;3.50;99.90;;;;;;2603320;54;20026;31
2022/01/15 13:46:48;;;;;;;39.70;10.30;;;3.50;99.90;;;;;;2603194;54;20097;31
2022/01/15 13:49:37;;;;;;;34.27;9.30;;;3.50;99.90;;;;;;2621264;46;20855;31
2022/01/15 13:55:15;;;;;;;27.25;7.90;;;3.50;99.90;;;;;;2603225;54;20026;31
2022/01/15 13:57:52;;;;;;;27.00;7.57;;;4.50;99.90;;;;;;2603099;54;20031;31
2022/01/15 14:03:07;;;;;;;22.27;7.13;;;3.40;99.90;;;;;;2603204;54;20546;31
2022/01/15 14:05:44;;;;;;;22.45;6.70;;;3.80;99.90;;;;;;2701719;39;20478;31
2022/01/15 14:08:29;;;;;;;25.40;6.45;;;3.30;99.90;;;;;;2602972;54;20027;31
2022/01/15 14:11:04;;;;;;;22.23;6.22;;;3.30;99.90;;;;;;2621728;46;20675;31
2022/01/15 14:13:38;;;;;;;31.67;6.82;;;4.60;99.90;;;;;;2602891;54;20045;31
2022/01/15 14:16:26;;;;;;;21.52;6.07;;;3.30;99.90;;;;;;2603398;54;20089;31
2022/01/15 14:19:25;;;;;;;21.08;5.75;;;4.30;99.90;;;;;;2603056;54;20108;31
2022/01/15 14:22:16;;;;;;;21.73;5.40;;;4.30;99.90;;;;;;2603320;54;21427;31
2022/01/15 14:24:54;;;;;;;21.08;6.80;;;3.00;99.90;;;;;;2603156;54;20022;31
2022/01/15 14:27:29;;;;;;;20.95;5.65;;;3.60;99.90;;;;;;2602950;54;21389;31
2022/01/15 14:30:03;;;;;;;19.08;5.70;;;4.60;99.90;;;;;;2603277;54;20033;31
2022/01/15 14:32:40;;;;;;;22.52;5.93;;;3.60;99.90;;;;;;2603071;54;20088;31
2022/01/15 14:35:15;;;;;;;21.65;6.70;;;3.50;99.90;;;;;;2603098;54;20149;31
2022/01/15 14:37:54;;;;;;;21.10;6.65;;;3.10;99.90;;;;;;2603025;54;20877;31